sensor_id;sensor_type;location;lat;lon;timestamp;P1;durP1;ratioP1;P2;durP2;ratioP2
13985;SDS011;7067;51.832;8.296;2022-08-05T00:00:45;4.72;;;2.20;;
13985;SDS011;7067;51.832;8.296;2022-08-05T00:03:10;4.97;;;2.45;;
13985;SDS011;7067;51.832;8.296;2022-08-05T00:05:36;5.13;;;1.92;;
13985;SDS011;7067;51.832;8.296;2022-08-05T00:08:01;5.63;;;2.53;;
13985;SDS011;7067;51.832;8.296;2022-08-05T00:10:26;3.75;;;1.90;;
13985;SDS011;7067;51.832;8.296;2022-08-05T00:12:52;5.38;;;2.63;;
13985;SDS011;7067;51.832;8.296;2022-08-05T00:15:17;3.15;;;2.10;;
13985;SDS011;7067;51.832;8.296;2022-08-05T00:17:42;6.55;;;2.30;;
13985;SDS011;7067;51.832;8.296;2022-08-05T00:20:08;4.43;;;2.33;;
13985;SDS011;7067;51.832;8.296;2022-08-05T00:22:33;5.80;;;2.47;;
13985;SDS011;7067;51.832;8.296;2022-08-05T00:25:00;5.47;;;2.42;;
13985;SDS011;7067;51.832;8.296;2022-08-05T00:27:25;6.00;;;2.45;;
13985;SDS011;7067;51.832;8.296;2022-08-05T00:29:52;5.47;;;2.55;;
13985;SDS011;7067;51.832;8.296;2022-08-05T00:32:17;6.45;;;2.50;;
13985;SDS011;7067;51.832;8.296;2022-08-05T00:34:43;4.88;;;2.10;;
13985;SDS011;7067;51.832;8.296;2022-08-05T00:37:09;5.00;;;2.63;;
13985;SDS011;7067;51.832;8.296;2022-08-05T00:39:34;9.57;;;3.38;;
13985;SDS011;7067;51.832;8.296;2022-08-05T00:42:00;5.45;;;3.45;;
13985;SDS011;7067;51.832;8.296;2022-08-05T00:44:25;5.85;;;3.08;;
13985;SDS011;7067;51.832;8.296;2022-08-05T00:46:51;8.82;;;3.45;;
13985;SDS011;7067;51.832;8.296;2022-08-05T00:49:16;7.28;;;3.35;;
13985;SDS011;7067;51.832;8.296;2022-08-05T00:51:44;8.23;;;3.30;;
13985;SDS011;7067;51.832;8.296;2022-08-05T00:54:12;4.60;;;3.63;;
13985;SDS011;7067;51.832;8.296;2022-08-05T00:56:38;6.65;;;4.32;;
13985;SDS011;7067;51.832;8.296;2022-08-05T00:59:04;5.40;;;4.32;;
13985;SDS011;7067;51.832;8.296;2022-08-05T01:01:30;4.20;;;3.72;;
13985;SDS011;7067;51.832;8.296;2022-08-05T01:03:55;6.40;;;3.85;;
13985;SDS011;7067;51.832;8.296;2022-08-05T01:06:20;6.18;;;4.65;;
13985;SDS011;7067;51.832;8.296;2022-08-05T01:08:46;8.73;;;4.55;;
13985;SDS011;7067;51.832;8.296;2022-08-05T01:11:16;7.78;;;4.20;;
13985;SDS011;7067;51.832;8.296;2022-08-05T01:16:42;8.05;;;4.45;;
13985;SDS011;7067;51.832;8.296;2022-08-05T01:22:04;5.90;;;4.50;;
13985;SDS011;7067;51.832;8.296;2022-08-05T01:27:42;4.40;;;4.00;;
13985;SDS011;7067;51.832;8.296;2022-08-05T01:30:50;8.93;;;4.38;;
13985;SDS011;7067;51.832;8.296;2022-08-05T01:33:17;8.23;;;3.55;;
13985;SDS011;7067;51.832;8.296;2022-08-05T01:35:46;4.10;;;3.08;;
13985;SDS011;7067;51.832;8.296;2022-08-05T01:38:12;7.95;;;3.22;;
13985;SDS011;7067;51.832;8.296;2022-08-05T01:40:39;6.28;;;3.30;;
13985;SDS011;7067;51.832;8.296;2022-08-05T01:43:05;3.38;;;3.08;;
13985;SDS011;7067;51.832;8.296;2022-08-05T01:45:31;5.88;;;2.85;;
13985;SDS011;7067;51.832;8.296;2022-08-05T01:47:58;5.68;;;3.00;;
13985;SDS011;7067;51.832;8.296;2022-08-05T01:50:31;6.00;;;2.95;;
13985;SDS011;7067;51.832;8.296;2022-08-05T01:53:02;7.45;;;3.17;;
13985;SDS011;7067;51.832;8.296;2022-08-05T01:55:30;4.88;;;3.15;;
13985;SDS011;7067;51.832;8.296;2022-08-05T01:57:57;6.40;;;2.60;;
13985;SDS011;7067;51.832;8.296;2022-08-05T02:00:24;5.72;;;3.58;;
13985;SDS011;7067;51.832;8.296;2022-08-05T02:02:57;4.80;;;3.00;;
13985;SDS011;7067;51.832;8.296;2022-08-05T02:05:26;8.27;;;3.30;;
13985;SDS011;7067;51.832;8.296;2022-08-05T02:07:55;8.82;;;3.08;;
13985;SDS011;7067;51.832;8.296;2022-08-05T02:10:21;4.60;;;2.78;;
13985;SDS011;7067;51.832;8.296;2022-08-05T02:15:27;4.50;;;2.85;;
13985;SDS011;7067;51.832;8.296;2022-08-05T02:17:57;5.05;;;3.40;;
13985;SDS011;7067;51.832;8.296;2022-08-05T02:20:29;9.35;;;3.17;;
13985;SDS011;7067;51.832;8.296;2022-08-05T02:22:58;4.40;;;2.97;;
13985;SDS011;7067;51.832;8.296;2022-08-05T02:25:27;7.60;;;3.58;;
13985;SDS011;7067;51.832;8.296;2022-08-05T02:27:55;8.35;;;3.20;;
13985;SDS011;7067;51.832;8.296;2022-08-05T02:30:21;6.07;;;3.28;;
13985;SDS011;7067;51.832;8.296;2022-08-05T02:32:49;3.40;;;3.10;;
13985;SDS011;7067;51.832;8.296;2022-08-05T02:35:17;6.38;;;2.88;;
13985;SDS011;7067;51.832;8.296;2022-08-05T02:37:44;4.38;;;3.03;;
13985;SDS011;7067;51.832;8.296;2022-08-05T02:40:10;5.57;;;3.08;;
13985;SDS011;7067;51.832;8.296;2022-08-05T02:42:36;5.95;;;3.00;;
13985;SDS011;7067;51.832;8.296;2022-08-05T02:45:03;5.80;;;3.00;;
13985;SDS011;7067;51.832;8.296;2022-08-05T02:47:29;3.33;;;2.67;;
13985;SDS011;7067;51.832;8.296;2022-08-05T02:49:56;4.22;;;2.65;;
13985;SDS011;7067;51.832;8.296;2022-08-05T02:52:22;6.20;;;2.58;;
13985;SDS011;7067;51.832;8.296;2022-08-05T02:54:47;3.83;;;2.70;;
13985;SDS011;7067;51.832;8.296;2022-08-05T02:57:14;5.75;;;2.88;;
13985;SDS011;7067;51.832;8.296;2022-08-05T02:59:42;6.82;;;2.65;;
13985;SDS011;7067;51.832;8.296;2022-08-05T03:02:10;5.50;;;2.67;;
13985;SDS011;7067;51.832;8.296;2022-08-05T03:04:36;13.48;;;3.45;;
13985;SDS011;7067;51.832;8.296;2022-08-05T03:07:02;11.02;;;3.60;;
13985;SDS011;7067;51.832;8.296;2022-08-05T03:09:27;8.73;;;3.17;;
13985;SDS011;7067;51.832;8.296;2022-08-05T03:11:53;5.72;;;3.47;;
13985;SDS011;7067;51.832;8.296;2022-08-05T03:14:18;5.50;;;3.95;;
13985;SDS011;7067;51.832;8.296;2022-08-05T03:16:43;6.20;;;4.15;;
13985;SDS011;7067;51.832;8.296;2022-08-05T03:19:09;6.22;;;3.92;;
13985;SDS011;7067;51.832;8.296;2022-08-05T03:21:34;6.93;;;4.70;;
13985;SDS011;7067;51.832;8.296;2022-08-05T03:23:59;14.13;;;4.65;;
13985;SDS011;7067;51.832;8.296;2022-08-05T03:26:25;10.40;;;4.05;;
13985;SDS011;7067;51.832;8.296;2022-08-05T03:28:51;9.60;;;4.82;;
13985;SDS011;7067;51.832;8.296;2022-08-05T03:31:17;5.53;;;4.28;;
13985;SDS011;7067;51.832;8.296;2022-08-05T03:33:42;7.75;;;4.10;;
13985;SDS011;7067;51.832;8.296;2022-08-05T03:36:08;7.47;;;4.32;;
13985;SDS011;7067;51.832;8.296;2022-08-05T03:38:37;7.30;;;4.57;;
13985;SDS011;7067;51.832;8.296;2022-08-05T03:43:29;6.75;;;4.55;;
13985;SDS011;7067;51.832;8.296;2022-08-05T03:45:55;7.50;;;4.93;;
13985;SDS011;7067;51.832;8.296;2022-08-05T03:48:20;9.65;;;6.05;;
13985;SDS011;7067;51.832;8.296;2022-08-05T03:51:00;8.13;;;5.40;;
13985;SDS011;7067;51.832;8.296;2022-08-05T03:56:04;7.97;;;5.63;;
13985;SDS011;7067;51.832;8.296;2022-08-05T04:00:58;5.95;;;5.35;;
13985;SDS011;7067;51.832;8.296;2022-08-05T04:03:26;12.15;;;6.30;;
13985;SDS011;7067;51.832;8.296;2022-08-05T04:05:53;7.78;;;5.95;;
13985;SDS011;7067;51.832;8.296;2022-08-05T04:08:19;7.72;;;6.55;;
13985;SDS011;7067;51.832;8.296;2022-08-05T04:10:44;9.18;;;6.20;;
13985;SDS011;7067;51.832;8.296;2022-08-05T04:13:10;10.55;;;6.25;;
13985;SDS011;7067;51.832;8.296;2022-08-05T04:15:35;9.35;;;5.88;;
13985;SDS011;7067;51.832;8.296;2022-08-05T04:18:02;6.53;;;5.85;;
13985;SDS011;7067;51.832;8.296;2022-08-05T04:20:29;8.88;;;6.57;;
13985;SDS011;7067;51.832;8.296;2022-08-05T04:22:54;15.55;;;8.45;;
13985;SDS011;7067;51.832;8.296;2022-08-05T04:25:19;12.23;;;7.13;;
13985;SDS011;7067;51.832;8.296;2022-08-05T04:27:45;12.18;;;7.95;;
13985;SDS011;7067;51.832;8.296;2022-08-05T04:30:10;14.10;;;7.80;;
13985;SDS011;7067;51.832;8.296;2022-08-05T04:32:36;17.00;;;9.48;;
13985;SDS011;7067;51.832;8.296;2022-08-05T04:35:01;12.27;;;8.20;;
13985;SDS011;7067;51.832;8.296;2022-08-05T04:37:27;12.55;;;8.70;;
13985;SDS011;7067;51.832;8.296;2022-08-05T04:39:52;10.75;;;8.82;;
13985;SDS011;7067;51.832;8.296;2022-08-05T04:42:17;9.55;;;8.32;;
13985;SDS011;7067;51.832;8.296;2022-08-05T04:44:43;13.40;;;10.05;;
13985;SDS011;7067;51.832;8.296;2022-08-05T04:47:08;14.77;;;9.43;;
13985;SDS011;7067;51.832;8.296;2022-08-05T04:49:33;11.95;;;9.20;;
13985;SDS011;7067;51.832;8.296;2022-08-05T04:51:59;19.30;;;9.77;;
13985;SDS011;7067;51.832;8.296;2022-08-05T04:54:24;15.75;;;9.57;;
13985;SDS011;7067;51.832;8.296;2022-08-05T04:56:52;13.00;;;9.75;;
13985;SDS011;7067;51.832;8.296;2022-08-05T04:59:18;10.27;;;9.30;;
13985;SDS011;7067;51.832;8.296;2022-08-05T05:01:44;13.80;;;9.45;;
13985;SDS011;7067;51.832;8.296;2022-08-05T05:04:10;19.50;;;10.45;;
13985;SDS011;7067;51.832;8.296;2022-08-05T05:06:35;14.10;;;11.27;;
13985;SDS011;7067;51.832;8.296;2022-08-05T05:09:01;20.58;;;10.88;;
13985;SDS011;7067;51.832;8.296;2022-08-05T05:11:27;17.17;;;11.63;;
13985;SDS011;7067;51.832;8.296;2022-08-05T05:13:52;12.90;;;10.73;;
13985;SDS011;7067;51.832;8.296;2022-08-05T05:16:17;13.05;;;10.63;;
13985;SDS011;7067;51.832;8.296;2022-08-05T05:18:42;16.55;;;11.65;;
13985;SDS011;7067;51.832;8.296;2022-08-05T05:21:08;14.27;;;11.50;;
13985;SDS011;7067;51.832;8.296;2022-08-05T05:23:33;14.10;;;10.90;;
13985;SDS011;7067;51.832;8.296;2022-08-05T05:25:58;15.55;;;11.32;;
13985;SDS011;7067;51.832;8.296;2022-08-05T05:28:24;15.77;;;12.70;;
13985;SDS011;7067;51.832;8.296;2022-08-05T05:30:49;18.60;;;12.85;;
13985;SDS011;7067;51.832;8.296;2022-08-05T05:33:15;17.70;;;12.52;;
13985;SDS011;7067;51.832;8.296;2022-08-05T05:35:40;18.08;;;13.63;;
13985;SDS011;7067;51.832;8.296;2022-08-05T05:38:05;18.15;;;13.23;;
13985;SDS011;7067;51.832;8.296;2022-08-05T05:40:32;14.85;;;13.13;;
13985;SDS011;7067;51.832;8.296;2022-08-05T05:42:58;16.08;;;13.30;;
13985;SDS011;7067;51.832;8.296;2022-08-05T05:45:23;17.52;;;13.55;;
13985;SDS011;7067;51.832;8.296;2022-08-05T05:47:49;18.88;;;13.93;;
13985;SDS011;7067;51.832;8.296;2022-08-05T05:50:15;18.10;;;12.70;;
13985;SDS011;7067;51.832;8.296;2022-08-05T05:52:41;19.80;;;14.70;;
13985;SDS011;7067;51.832;8.296;2022-08-05T05:55:11;27.80;;;15.00;;
13985;SDS011;7067;51.832;8.296;2022-08-05T05:57:38;20.77;;;14.13;;
13985;SDS011;7067;51.832;8.296;2022-08-05T06:00:05;18.05;;;13.18;;
13985;SDS011;7067;51.832;8.296;2022-08-05T06:02:33;19.80;;;14.50;;
13985;SDS011;7067;51.832;8.296;2022-08-05T06:04:58;20.20;;;15.50;;
13985;SDS011;7067;51.832;8.296;2022-08-05T06:07:23;21.90;;;14.93;;
13985;SDS011;7067;51.832;8.296;2022-08-05T06:09:49;16.58;;;14.23;;
13985;SDS011;7067;51.832;8.296;2022-08-05T06:12:14;21.67;;;15.60;;
13985;SDS011;7067;51.832;8.296;2022-08-05T06:14:40;23.92;;;14.20;;
13985;SDS011;7067;51.832;8.296;2022-08-05T06:17:08;22.27;;;16.17;;
13985;SDS011;7067;51.832;8.296;2022-08-05T06:19:34;21.65;;;16.80;;
13985;SDS011;7067;51.832;8.296;2022-08-05T06:21:59;24.73;;;16.50;;
13985;SDS011;7067;51.832;8.296;2022-08-05T06:24:24;28.60;;;18.70;;
13985;SDS011;7067;51.832;8.296;2022-08-05T06:26:50;25.17;;;18.00;;
13985;SDS011;7067;51.832;8.296;2022-08-05T06:29:15;21.55;;;18.48;;
13985;SDS011;7067;51.832;8.296;2022-08-05T06:31:40;29.05;;;18.85;;
13985;SDS011;7067;51.832;8.296;2022-08-05T06:34:06;24.75;;;18.90;;
13985;SDS011;7067;51.832;8.296;2022-08-05T06:36:31;23.00;;;19.85;;
13985;SDS011;7067;51.832;8.296;2022-08-05T06:38:56;23.42;;;18.02;;
13985;SDS011;7067;51.832;8.296;2022-08-05T06:41:22;25.50;;;18.92;;
13985;SDS011;7067;51.832;8.296;2022-08-05T06:43:47;25.02;;;18.23;;
13985;SDS011;7067;51.832;8.296;2022-08-05T06:46:13;24.00;;;18.30;;
13985;SDS011;7067;51.832;8.296;2022-08-05T06:48:39;25.40;;;18.75;;
13985;SDS011;7067;51.832;8.296;2022-08-05T06:51:04;22.85;;;18.15;;
13985;SDS011;7067;51.832;8.296;2022-08-05T06:53:30;25.50;;;18.40;;
13985;SDS011;7067;51.832;8.296;2022-08-05T06:55:56;27.33;;;18.58;;
13985;SDS011;7067;51.832;8.296;2022-08-05T06:58:22;22.45;;;17.05;;
13985;SDS011;7067;51.832;8.296;2022-08-05T07:00:48;23.52;;;17.65;;
13985;SDS011;7067;51.832;8.296;2022-08-05T07:03:13;19.10;;;17.05;;
13985;SDS011;7067;51.832;8.296;2022-08-05T07:05:39;19.48;;;17.05;;
13985;SDS011;7067;51.832;8.296;2022-08-05T07:08:04;22.80;;;16.77;;
13985;SDS011;7067;51.832;8.296;2022-08-05T07:10:30;24.70;;;18.77;;
13985;SDS011;7067;51.832;8.296;2022-08-05T07:12:55;24.17;;;18.20;;
13985;SDS011;7067;51.832;8.296;2022-08-05T07:15:39;17.63;;;14.25;;
13985;SDS011;7067;51.832;8.296;2022-08-05T07:18:23;16.55;;;14.75;;
13985;SDS011;7067;51.832;8.296;2022-08-05T07:20:49;17.02;;;14.10;;
13985;SDS011;7067;51.832;8.296;2022-08-05T07:23:15;17.08;;;13.70;;
13985;SDS011;7067;51.832;8.296;2022-08-05T07:25:40;18.75;;;13.63;;
13985;SDS011;7067;51.832;8.296;2022-08-05T07:28:06;15.60;;;13.95;;
13985;SDS011;7067;51.832;8.296;2022-08-05T07:30:32;20.38;;;14.35;;
13985;SDS011;7067;51.832;8.296;2022-08-05T07:32:58;18.65;;;14.02;;
13985;SDS011;7067;51.832;8.296;2022-08-05T07:35:25;18.55;;;13.80;;
13985;SDS011;7067;51.832;8.296;2022-08-05T07:37:50;15.32;;;13.40;;
13985;SDS011;7067;51.832;8.296;2022-08-05T07:40:15;15.98;;;12.57;;
13985;SDS011;7067;51.832;8.296;2022-08-05T07:42:41;14.18;;;12.68;;
13985;SDS011;7067;51.832;8.296;2022-08-05T07:45:07;15.48;;;13.68;;
13985;SDS011;7067;51.832;8.296;2022-08-05T07:47:33;14.05;;;12.65;;
13985;SDS011;7067;51.832;8.296;2022-08-05T07:49:58;14.10;;;11.80;;
13985;SDS011;7067;51.832;8.296;2022-08-05T07:52:23;15.50;;;13.07;;
13985;SDS011;7067;51.832;8.296;2022-08-05T07:54:49;13.70;;;11.95;;
13985;SDS011;7067;51.832;8.296;2022-08-05T07:57:14;14.55;;;13.07;;
13985;SDS011;7067;51.832;8.296;2022-08-05T07:59:39;13.23;;;11.68;;
13985;SDS011;7067;51.832;8.296;2022-08-05T08:02:05;16.95;;;11.52;;
13985;SDS011;7067;51.832;8.296;2022-08-05T08:04:31;14.27;;;12.05;;
13985;SDS011;7067;51.832;8.296;2022-08-05T08:06:57;22.00;;;11.80;;
13985;SDS011;7067;51.832;8.296;2022-08-05T08:09:24;15.35;;;10.95;;
13985;SDS011;7067;51.832;8.296;2022-08-05T08:11:50;15.10;;;11.63;;
13985;SDS011;7067;51.832;8.296;2022-08-05T08:14:15;12.27;;;11.00;;
13985;SDS011;7067;51.832;8.296;2022-08-05T08:16:41;14.30;;;10.57;;
13985;SDS011;7067;51.832;8.296;2022-08-05T08:19:06;12.35;;;11.20;;
13985;SDS011;7067;51.832;8.296;2022-08-05T08:21:32;16.50;;;11.43;;
13985;SDS011;7067;51.832;8.296;2022-08-05T08:23:58;12.60;;;11.32;;
13985;SDS011;7067;51.832;8.296;2022-08-05T08:26:23;16.10;;;12.27;;
13985;SDS011;7067;51.832;8.296;2022-08-05T08:28:48;14.68;;;12.80;;
13985;SDS011;7067;51.832;8.296;2022-08-05T08:31:13;12.77;;;11.60;;
13985;SDS011;7067;51.832;8.296;2022-08-05T08:33:39;13.40;;;12.15;;
13985;SDS011;7067;51.832;8.296;2022-08-05T08:36:07;15.80;;;12.57;;
13985;SDS011;7067;51.832;8.296;2022-08-05T08:38:33;14.55;;;13.15;;
13985;SDS011;7067;51.832;8.296;2022-08-05T08:40:58;13.88;;;12.57;;
13985;SDS011;7067;51.832;8.296;2022-08-05T08:43:24;13.95;;;12.60;;
13985;SDS011;7067;51.832;8.296;2022-08-05T08:45:49;14.13;;;11.63;;
13985;SDS011;7067;51.832;8.296;2022-08-05T08:48:16;12.70;;;11.50;;
13985;SDS011;7067;51.832;8.296;2022-08-05T08:50:43;11.73;;;10.63;;
13985;SDS011;7067;51.832;8.296;2022-08-05T08:53:09;11.27;;;10.27;;
13985;SDS011;7067;51.832;8.296;2022-08-05T08:55:36;12.70;;;11.45;;
13985;SDS011;7067;51.832;8.296;2022-08-05T08:58:02;12.98;;;10.85;;
13985;SDS011;7067;51.832;8.296;2022-08-05T09:00:28;12.82;;;10.00;;
13985;SDS011;7067;51.832;8.296;2022-08-05T09:02:53;10.00;;;9.00;;
13985;SDS011;7067;51.832;8.296;2022-08-05T09:05:19;12.00;;;10.90;;
13985;SDS011;7067;51.832;8.296;2022-08-05T09:07:45;14.32;;;11.00;;
13985;SDS011;7067;51.832;8.296;2022-08-05T09:10:11;13.80;;;12.50;;
13985;SDS011;7067;51.832;8.296;2022-08-05T09:12:36;15.90;;;12.63;;
13985;SDS011;7067;51.832;8.296;2022-08-05T09:15:02;15.45;;;13.90;;
13985;SDS011;7067;51.832;8.296;2022-08-05T09:17:29;15.18;;;13.65;;
13985;SDS011;7067;51.832;8.296;2022-08-05T09:19:54;16.88;;;14.63;;
13985;SDS011;7067;51.832;8.296;2022-08-05T09:22:20;17.08;;;14.18;;
13985;SDS011;7067;51.832;8.296;2022-08-05T09:25:01;15.07;;;13.70;;
13985;SDS011;7067;51.832;8.296;2022-08-05T09:27:31;22.48;;;15.30;;
13985;SDS011;7067;51.832;8.296;2022-08-05T09:29:58;16.00;;;14.40;;
13985;SDS011;7067;51.832;8.296;2022-08-05T09:32:32;15.57;;;14.07;;
13985;SDS011;7067;51.832;8.296;2022-08-05T09:34:59;17.42;;;14.15;;
13985;SDS011;7067;51.832;8.296;2022-08-05T09:37:26;14.85;;;13.55;;
13985;SDS011;7067;51.832;8.296;2022-08-05T09:39:53;15.07;;;13.45;;
13985;SDS011;7067;51.832;8.296;2022-08-05T09:42:19;14.85;;;13.23;;
13985;SDS011;7067;51.832;8.296;2022-08-05T09:44:49;15.25;;;14.00;;
13985;SDS011;7067;51.832;8.296;2022-08-05T09:47:16;15.13;;;13.82;;
13985;SDS011;7067;51.832;8.296;2022-08-05T09:49:50;14.70;;;13.38;;
13985;SDS011;7067;51.832;8.296;2022-08-05T09:57:33;15.40;;;13.80;;
13985;SDS011;7067;51.832;8.296;2022-08-05T10:00:03;16.80;;;15.05;;
13985;SDS011;7067;51.832;8.296;2022-08-05T10:02:29;14.73;;;13.32;;
13985;SDS011;7067;51.832;8.296;2022-08-05T10:04:55;15.48;;;13.80;;
13985;SDS011;7067;51.832;8.296;2022-08-05T10:07:43;14.35;;;12.85;;
13985;SDS011;7067;51.832;8.296;2022-08-05T10:10:14;12.23;;;10.88;;
13985;SDS011;7067;51.832;8.296;2022-08-05T10:12:47;11.05;;;10.02;;
13985;SDS011;7067;51.832;8.296;2022-08-05T10:15:15;9.65;;;8.43;;
13985;SDS011;7067;51.832;8.296;2022-08-05T10:17:41;9.45;;;8.27;;
13985;SDS011;7067;51.832;8.296;2022-08-05T10:20:07;8.35;;;7.55;;
13985;SDS011;7067;51.832;8.296;2022-08-05T10:22:36;7.55;;;6.93;;
13985;SDS011;7067;51.832;8.296;2022-08-05T10:25:03;10.25;;;7.13;;
13985;SDS011;7067;51.832;8.296;2022-08-05T10:27:29;9.32;;;7.00;;
13985;SDS011;7067;51.832;8.296;2022-08-05T10:29:55;6.95;;;6.38;;
13985;SDS011;7067;51.832;8.296;2022-08-05T10:32:20;7.07;;;6.25;;
13985;SDS011;7067;51.832;8.296;2022-08-05T10:34:46;7.05;;;6.22;;
13985;SDS011;7067;51.832;8.296;2022-08-05T10:37:12;5.47;;;5.07;;
13985;SDS011;7067;51.832;8.296;2022-08-05T10:39:37;8.43;;;4.72;;
13985;SDS011;7067;51.832;8.296;2022-08-05T10:42:08;5.20;;;4.32;;
13985;SDS011;7067;51.832;8.296;2022-08-05T10:44:37;5.50;;;4.35;;
13985;SDS011;7067;51.832;8.296;2022-08-05T10:47:10;4.57;;;4.10;;
13985;SDS011;7067;51.832;8.296;2022-08-05T10:49:42;4.22;;;3.30;;
13985;SDS011;7067;51.832;8.296;2022-08-05T10:52:44;4.57;;;3.50;;
13985;SDS011;7067;51.832;8.296;2022-08-05T10:55:24;4.25;;;3.47;;
13985;SDS011;7067;51.832;8.296;2022-08-05T10:58:09;6.03;;;3.63;;
13985;SDS011;7067;51.832;8.296;2022-08-05T11:00:35;3.17;;;2.70;;
13985;SDS011;7067;51.832;8.296;2022-08-05T11:05:29;3.10;;;2.80;;
13985;SDS011;7067;51.832;8.296;2022-08-05T11:08:00;3.67;;;2.90;;
13985;SDS011;7067;51.832;8.296;2022-08-05T11:10:30;5.20;;;3.30;;
13985;SDS011;7067;51.832;8.296;2022-08-05T11:12:57;5.43;;;3.75;;
13985;SDS011;7067;51.832;8.296;2022-08-05T11:15:27;3.95;;;3.10;;
13985;SDS011;7067;51.832;8.296;2022-08-05T11:20:54;6.97;;;3.80;;
13985;SDS011;7067;51.832;8.296;2022-08-05T11:23:33;4.68;;;4.18;;
13985;SDS011;7067;51.832;8.296;2022-08-05T11:26:09;4.03;;;3.63;;
13985;SDS011;7067;51.832;8.296;2022-08-05T11:28:36;6.22;;;3.97;;
13985;SDS011;7067;51.832;8.296;2022-08-05T11:36:07;5.57;;;3.90;;
13985;SDS011;7067;51.832;8.296;2022-08-05T11:41:14;4.97;;;4.20;;
13985;SDS011;7067;51.832;8.296;2022-08-05T11:43:53;4.60;;;4.05;;
13985;SDS011;7067;51.832;8.296;2022-08-05T11:46:40;4.63;;;4.32;;
13985;SDS011;7067;51.832;8.296;2022-08-05T11:49:07;4.10;;;3.78;;
13985;SDS011;7067;51.832;8.296;2022-08-05T11:51:37;4.22;;;3.40;;
13985;SDS011;7067;51.832;8.296;2022-08-05T11:54:06;5.45;;;3.97;;
13985;SDS011;7067;51.832;8.296;2022-08-05T11:59:27;3.10;;;2.65;;
13985;SDS011;7067;51.832;8.296;2022-08-05T12:04:19;5.10;;;2.72;;
13985;SDS011;7067;51.832;8.296;2022-08-05T12:06:45;3.50;;;2.47;;
13985;SDS011;7067;51.832;8.296;2022-08-05T12:09:11;3.17;;;2.70;;
13985;SDS011;7067;51.832;8.296;2022-08-05T12:11:42;4.63;;;3.10;;
13985;SDS011;7067;51.832;8.296;2022-08-05T12:14:08;3.63;;;2.70;;
13985;SDS011;7067;51.832;8.296;2022-08-05T12:16:34;6.15;;;2.78;;
13985;SDS011;7067;51.832;8.296;2022-08-05T12:19:01;5.05;;;2.65;;
13985;SDS011;7067;51.832;8.296;2022-08-05T12:21:29;3.47;;;2.67;;
13985;SDS011;7067;51.832;8.296;2022-08-05T12:26:35;3.92;;;2.78;;
13985;SDS011;7067;51.832;8.296;2022-08-05T12:29:06;3.67;;;3.22;;
13985;SDS011;7067;51.832;8.296;2022-08-05T12:31:35;3.10;;;2.72;;
13985;SDS011;7067;51.832;8.296;2022-08-05T12:34:01;4.13;;;3.10;;
13985;SDS011;7067;51.832;8.296;2022-08-05T12:36:27;3.20;;;2.90;;
13985;SDS011;7067;51.832;8.296;2022-08-05T12:38:53;3.53;;;2.50;;
13985;SDS011;7067;51.832;8.296;2022-08-05T12:41:19;2.53;;;2.30;;
13985;SDS011;7067;51.832;8.296;2022-08-05T12:43:51;3.70;;;2.42;;
13985;SDS011;7067;51.832;8.296;2022-08-05T12:46:20;3.92;;;2.60;;
13985;SDS011;7067;51.832;8.296;2022-08-05T12:48:59;3.28;;;1.77;;
13985;SDS011;7067;51.832;8.296;2022-08-05T12:51:25;2.78;;;2.50;;
13985;SDS011;7067;51.832;8.296;2022-08-05T12:53:59;6.40;;;2.65;;
13985;SDS011;7067;51.832;8.296;2022-08-05T12:56:26;2.42;;;2.20;;
13985;SDS011;7067;51.832;8.296;2022-08-05T13:01:45;4.47;;;2.55;;
13985;SDS011;7067;51.832;8.296;2022-08-05T13:04:26;5.68;;;2.65;;
13985;SDS011;7067;51.832;8.296;2022-08-05T13:06:54;3.13;;;2.00;;
13985;SDS011;7067;51.832;8.296;2022-08-05T13:09:21;4.57;;;2.22;;
13985;SDS011;7067;51.832;8.296;2022-08-05T13:11:46;4.63;;;2.20;;
13985;SDS011;7067;51.832;8.296;2022-08-05T13:14:22;3.85;;;1.92;;
13985;SDS011;7067;51.832;8.296;2022-08-05T13:16:55;3.00;;;2.40;;
13985;SDS011;7067;51.832;8.296;2022-08-05T13:19:22;3.35;;;2.15;;
13985;SDS011;7067;51.832;8.296;2022-08-05T13:21:49;3.28;;;1.92;;
13985;SDS011;7067;51.832;8.296;2022-08-05T13:24:16;3.42;;;1.52;;
13985;SDS011;7067;51.832;8.296;2022-08-05T13:26:42;3.25;;;1.90;;
13985;SDS011;7067;51.832;8.296;2022-08-05T13:29:08;3.08;;;1.70;;
13985;SDS011;7067;51.832;8.296;2022-08-05T13:31:34;3.03;;;2.17;;
13985;SDS011;7067;51.832;8.296;2022-08-05T13:33:59;3.50;;;2.20;;
13985;SDS011;7067;51.832;8.296;2022-08-05T13:36:25;4.25;;;2.33;;
13985;SDS011;7067;51.832;8.296;2022-08-05T13:38:50;4.45;;;2.33;;
13985;SDS011;7067;51.832;8.296;2022-08-05T13:41:15;5.65;;;2.53;;
13985;SDS011;7067;51.832;8.296;2022-08-05T13:43:41;4.15;;;1.98;;
13985;SDS011;7067;51.832;8.296;2022-08-05T13:46:08;4.25;;;2.10;;
13985;SDS011;7067;51.832;8.296;2022-08-05T13:48:35;2.35;;;1.80;;
13985;SDS011;7067;51.832;8.296;2022-08-05T13:51:06;2.67;;;2.20;;
13985;SDS011;7067;51.832;8.296;2022-08-05T13:53:33;3.55;;;2.00;;
13985;SDS011;7067;51.832;8.296;2022-08-05T13:55:59;4.35;;;2.05;;
13985;SDS011;7067;51.832;8.296;2022-08-05T13:58:25;4.53;;;2.58;;
13985;SDS011;7067;51.832;8.296;2022-08-05T14:00:50;1.88;;;1.75;;
13985;SDS011;7067;51.832;8.296;2022-08-05T14:03:16;1.70;;;1.60;;
13985;SDS011;7067;51.832;8.296;2022-08-05T14:05:41;2.10;;;1.90;;
13985;SDS011;7067;51.832;8.296;2022-08-05T14:08:06;3.55;;;2.00;;
13985;SDS011;7067;51.832;8.296;2022-08-05T14:10:32;3.22;;;1.63;;
13985;SDS011;7067;51.832;8.296;2022-08-05T14:12:58;3.25;;;1.50;;
13985;SDS011;7067;51.832;8.296;2022-08-05T14:15:24;2.50;;;1.60;;
13985;SDS011;7067;51.832;8.296;2022-08-05T14:17:49;1.83;;;1.65;;
13985;SDS011;7067;51.832;8.296;2022-08-05T14:20:15;3.53;;;1.90;;
13985;SDS011;7067;51.832;8.296;2022-08-05T14:22:40;9.40;;;6.60;;
13985;SDS011;7067;51.832;8.296;2022-08-05T14:25:07;7.93;;;5.38;;
13985;SDS011;7067;51.832;8.296;2022-08-05T14:27:34;6.15;;;2.95;;
13985;SDS011;7067;51.832;8.296;2022-08-05T14:29:59;3.95;;;2.28;;
13985;SDS011;7067;51.832;8.296;2022-08-05T14:32:25;22.05;;;12.25;;
13985;SDS011;7067;51.832;8.296;2022-08-05T14:34:50;9.48;;;4.63;;
13985;SDS011;7067;51.832;8.296;2022-08-05T14:37:15;5.32;;;3.08;;
13985;SDS011;7067;51.832;8.296;2022-08-05T14:39:41;7.13;;;3.15;;
13985;SDS011;7067;51.832;8.296;2022-08-05T14:42:06;5.38;;;2.30;;
13985;SDS011;7067;51.832;8.296;2022-08-05T14:44:33;1.75;;;1.40;;
13985;SDS011;7067;51.832;8.296;2022-08-05T14:46:58;3.75;;;1.83;;
13985;SDS011;7067;51.832;8.296;2022-08-05T14:49:24;2.85;;;1.65;;
13985;SDS011;7067;51.832;8.296;2022-08-05T14:51:50;1.95;;;1.20;;
13985;SDS011;7067;51.832;8.296;2022-08-05T14:54:15;3.45;;;1.40;;
13985;SDS011;7067;51.832;8.296;2022-08-05T14:56:41;2.25;;;1.58;;
13985;SDS011;7067;51.832;8.296;2022-08-05T14:59:06;1.20;;;1.10;;
13985;SDS011;7067;51.832;8.296;2022-08-05T15:01:31;2.17;;;1.30;;
13985;SDS011;7067;51.832;8.296;2022-08-05T15:03:57;2.67;;;1.45;;
13985;SDS011;7067;51.832;8.296;2022-08-05T15:06:22;5.32;;;1.60;;
13985;SDS011;7067;51.832;8.296;2022-08-05T15:08:47;2.65;;;1.02;;
13985;SDS011;7067;51.832;8.296;2022-08-05T15:11:13;2.03;;;1.00;;
13985;SDS011;7067;51.832;8.296;2022-08-05T15:13:38;1.90;;;1.20;;
13985;SDS011;7067;51.832;8.296;2022-08-05T15:16:04;3.75;;;1.30;;
13985;SDS011;7067;51.832;8.296;2022-08-05T15:18:29;8.80;;;1.75;;
13985;SDS011;7067;51.832;8.296;2022-08-05T15:20:54;4.28;;;1.20;;
13985;SDS011;7067;51.832;8.296;2022-08-05T15:23:20;4.82;;;1.23;;
13985;SDS011;7067;51.832;8.296;2022-08-05T15:25:45;4.95;;;1.08;;
13985;SDS011;7067;51.832;8.296;2022-08-05T15:28:11;2.78;;;1.10;;
13985;SDS011;7067;51.832;8.296;2022-08-05T15:30:37;1.88;;;1.20;;
13985;SDS011;7067;51.832;8.296;2022-08-05T15:33:03;3.35;;;1.23;;
13985;SDS011;7067;51.832;8.296;2022-08-05T15:35:29;2.35;;;1.38;;
13985;SDS011;7067;51.832;8.296;2022-08-05T15:37:54;5.57;;;1.10;;